createdAt,value
2023-02-02T00:00:04.450Z,0.00
2023-02-02T00:01:04.467Z,0.00
2023-02-02T00:02:04.485Z,0.00
2023-02-02T00:03:04.546Z,0.00
2023-02-02T00:04:04.570Z,0.00
2023-02-02T00:05:04.540Z,0.00
2023-02-02T00:06:04.569Z,0.00
2023-02-02T00:07:04.578Z,0.00
2023-02-02T00:08:04.596Z,0.00
2023-02-02T00:09:04.618Z,0.00
2023-02-02T00:10:04.639Z,0.00
2023-02-02T00:11:04.657Z,0.00
2023-02-02T00:12:04.671Z,0.00
2023-02-02T00:13:04.702Z,0.00
2023-02-02T00:14:04.705Z,0.00
2023-02-02T00:15:04.784Z,0.00
2023-02-02T00:16:04.804Z,0.00
2023-02-02T00:17:04.768Z,0.00
2023-02-02T00:18:04.780Z,0.00
2023-02-02T00:19:04.799Z,0.00
2023-02-02T00:20:04.816Z,0.00
2023-02-02T00:21:04.833Z,0.00
2023-02-02T00:22:04.854Z,0.00
2023-02-02T00:23:04.873Z,0.00
2023-02-02T00:24:04.896Z,0.00
2023-02-02T00:25:04.909Z,0.00
2023-02-02T00:26:04.928Z,0.00
2023-02-02T00:27:04.948Z,0.00
2023-02-02T00:28:04.968Z,0.00
2023-02-02T00:29:04.988Z,0.00
2023-02-02T00:30:05.001Z,0.00
2023-02-02T00:31:05.019Z,0.00
2023-02-02T00:32:05.038Z,0.00
2023-02-02T00:33:05.054Z,0.00
2023-02-02T00:34:05.076Z,0.00
2023-02-02T00:35:05.094Z,0.00
2023-02-02T00:36:05.114Z,0.00
2023-02-02T00:37:05.130Z,0.00
2023-02-02T00:38:05.147Z,0.00
2023-02-02T00:39:05.163Z,0.00
2023-02-02T00:40:05.184Z,0.00
2023-02-02T00:41:05.203Z,0.00
2023-02-02T00:42:05.227Z,0.00
2023-02-02T00:43:05.248Z,0.00
2023-02-02T00:44:05.259Z,0.00
2023-02-02T00:45:05.280Z,0.00
2023-02-02T00:46:05.347Z,0.00
2023-02-02T00:47:05.309Z,0.00
2023-02-02T00:48:05.334Z,0.00
2023-02-02T00:49:05.351Z,0.00
2023-02-02T00:50:05.375Z,0.00
2023-02-02T00:51:05.387Z,0.00
2023-02-02T00:52:05.413Z,0.00
2023-02-02T00:53:05.423Z,0.00
2023-02-02T00:54:05.454Z,0.00
2023-02-02T00:55:05.459Z,0.00
2023-02-02T00:56:05.478Z,0.00
2023-02-02T00:57:05.503Z,0.00
2023-02-02T00:58:05.520Z,0.00
2023-02-02T00:59:05.556Z,0.00
2023-02-02T01:00:05.555Z,0.00
2023-02-02T01:01:05.611Z,0.00
2023-02-02T01:02:05.619Z,0.00
2023-02-02T01:03:05.606Z,0.00
2023-02-02T01:04:05.632Z,0.00
2023-02-02T01:05:05.645Z,0.00
2023-02-02T01:06:05.662Z,0.00
2023-02-02T01:07:05.679Z,0.00
2023-02-02T01:08:05.699Z,0.00
2023-02-02T01:09:05.718Z,0.00
2023-02-02T01:10:05.743Z,0.00
2023-02-02T01:11:05.755Z,0.00
2023-02-02T01:12:05.772Z,0.00
2023-02-02T01:13:05.789Z,0.00
2023-02-02T01:14:05.810Z,0.00
2023-02-02T01:15:05.826Z,0.00
2023-02-02T01:16:05.870Z,0.00
2023-02-02T01:17:05.871Z,0.00
2023-02-02T01:18:05.888Z,0.00
2023-02-02T01:19:05.901Z,0.00
2023-02-02T01:20:05.932Z,0.00
2023-02-02T01:21:05.935Z,0.00
2023-02-02T01:22:05.955Z,0.00
2023-02-02T01:23:05.974Z,0.00
2023-02-02T01:24:05.991Z,0.00
2023-02-02T01:25:06.008Z,0.00
2023-02-02T01:26:06.042Z,0.00
2023-02-02T01:27:06.046Z,0.00
2023-02-02T01:28:06.083Z,0.00
2023-02-02T01:29:06.090Z,0.00
2023-02-02T01:30:06.099Z,0.00
2023-02-02T01:31:06.147Z,0.00
2023-02-02T01:32:06.202Z,0.00
2023-02-02T01:33:06.156Z,0.00
2023-02-02T01:34:06.173Z,0.00
2023-02-02T01:35:06.192Z,0.00
2023-02-02T01:36:06.209Z,0.00
2023-02-02T01:37:06.227Z,0.00
2023-02-02T01:38:06.244Z,0.00
2023-02-02T01:39:06.263Z,0.00
2023-02-02T01:40:06.296Z,0.00
2023-02-02T01:41:06.292Z,0.00
2023-02-02T01:42:06.318Z,0.00
2023-02-02T01:43:06.336Z,0.00
2023-02-02T01:44:06.355Z,0.00
2023-02-02T01:45:06.372Z,0.00
2023-02-02T01:46:06.450Z,0.00
2023-02-02T01:47:06.406Z,0.00
2023-02-02T01:48:06.426Z,0.00
2023-02-02T01:49:06.448Z,0.00
2023-02-02T01:50:06.461Z,0.00
2023-02-02T01:51:06.486Z,0.00
2023-02-02T01:52:06.499Z,0.00
2023-02-02T01:53:06.519Z,0.00
2023-02-02T01:54:06.534Z,0.00
2023-02-02T01:55:06.556Z,0.00
2023-02-02T01:56:06.571Z,0.00
2023-02-02T01:57:06.595Z,0.00
2023-02-02T01:58:06.610Z,0.00
2023-02-02T01:59:06.628Z,0.00
2023-02-02T02:00:06.650Z,0.00
2023-02-02T02:01:06.685Z,0.00
2023-02-02T02:02:06.736Z,0.00
2023-02-02T02:03:06.698Z,0.00
2023-02-02T02:04:06.717Z,0.00
2023-02-02T02:05:06.737Z,0.00
2023-02-02T02:06:06.823Z,0.00
2023-02-02T02:07:06.774Z,0.00
2023-02-02T02:08:06.790Z,0.00
2023-02-02T02:09:06.818Z,0.00
2023-02-02T02:10:06.829Z,0.00
2023-02-02T02:11:06.853Z,0.00
2023-02-02T02:12:06.863Z,0.00
2023-02-02T02:13:06.886Z,0.00
2023-02-02T02:14:06.900Z,0.00
2023-02-02T02:15:06.929Z,0.00
2023-02-02T02:16:06.942Z,0.00
2023-02-02T02:17:06.955Z,0.00
2023-02-02T02:18:06.978Z,0.00
2023-02-02T02:19:06.990Z,0.00
2023-02-02T02:20:07.014Z,0.00
2023-02-02T02:21:07.029Z,0.00
2023-02-02T02:22:07.044Z,0.00
2023-02-02T02:23:07.065Z,0.00
2023-02-02T02:24:07.081Z,0.00
2023-02-02T02:25:07.099Z,0.00
2023-02-02T02:26:07.119Z,0.00
2023-02-02T02:27:07.137Z,0.00
2023-02-02T02:28:07.164Z,0.00
2023-02-02T02:29:07.191Z,0.00
2023-02-02T02:30:07.194Z,0.00
2023-02-02T02:31:07.345Z,0.00
2023-02-02T02:32:07.227Z,0.00
2023-02-02T02:33:07.247Z,0.00
2023-02-02T02:34:07.271Z,0.00
2023-02-02T02:35:07.285Z,0.00
2023-02-02T02:36:07.305Z,0.00
2023-02-02T02:37:07.326Z,0.00
2023-02-02T02:38:07.341Z,0.00
2023-02-02T02:39:07.359Z,0.00
2023-02-02T02:40:07.383Z,0.00
2023-02-02T02:41:07.400Z,0.00
2023-02-02T02:42:07.409Z,0.00
2023-02-02T02:43:07.425Z,0.00
2023-02-02T02:44:07.454Z,0.00
2023-02-02T02:45:07.470Z,0.00
2023-02-02T02:46:07.527Z,0.00
2023-02-02T02:47:07.506Z,0.00
2023-02-02T02:48:07.524Z,0.00
2023-02-02T02:49:07.543Z,0.00
2023-02-02T02:50:07.562Z,0.00
2023-02-02T02:51:07.594Z,0.00
2023-02-02T02:52:07.601Z,0.00
2023-02-02T02:53:07.618Z,0.00
2023-02-02T02:54:07.640Z,0.00
2023-02-02T02:55:07.666Z,0.00
2023-02-02T02:56:07.672Z,0.00
2023-02-02T02:57:07.702Z,0.00
2023-02-02T02:58:07.710Z,0.00
2023-02-02T02:59:07.727Z,0.00
2023-02-02T03:00:07.765Z,0.00
2023-02-02T03:01:07.769Z,0.00
2023-02-02T03:02:07.790Z,0.00
2023-02-02T03:03:07.803Z,0.00
2023-02-02T03:04:07.831Z,0.00
2023-02-02T03:05:07.857Z,0.00
2023-02-02T03:06:07.858Z,0.00
2023-02-02T03:07:07.880Z,0.00
2023-02-02T03:08:07.897Z,0.00
2023-02-02T03:09:07.915Z,0.00
2023-02-02T03:10:07.946Z,0.00
2023-02-02T03:11:07.951Z,0.00
2023-02-02T03:12:07.970Z,0.00
2023-02-02T03:13:07.988Z,0.00
2023-02-02T03:14:08.008Z,0.00
2023-02-02T03:15:08.032Z,0.00
2023-02-02T03:16:08.084Z,0.00
2023-02-02T03:17:08.064Z,0.00
2023-02-02T03:18:08.077Z,0.00
2023-02-02T03:19:08.100Z,0.00
2023-02-02T03:20:08.118Z,0.00
2023-02-02T03:21:08.138Z,0.00
2023-02-02T03:22:08.157Z,0.00
2023-02-02T03:23:08.176Z,0.00
2023-02-02T03:24:08.195Z,0.00
2023-02-02T03:25:08.217Z,0.00
2023-02-02T03:26:08.237Z,0.00
2023-02-02T03:27:08.252Z,0.00
2023-02-02T03:28:08.275Z,0.00
2023-02-02T03:29:08.287Z,0.00
2023-02-02T03:30:08.309Z,0.00
2023-02-02T03:31:08.473Z,0.00
2023-02-02T03:32:08.348Z,0.00
2023-02-02T03:33:08.393Z,0.00
2023-02-02T03:34:08.383Z,0.00
2023-02-02T03:35:08.402Z,0.00
2023-02-02T03:36:08.421Z,0.00
2023-02-02T03:37:08.439Z,0.00
2023-02-02T03:38:08.458Z,0.00
2023-02-02T03:39:08.477Z,0.00
2023-02-02T03:40:08.497Z,0.00
2023-02-02T03:41:08.516Z,0.00
2023-02-02T03:42:08.535Z,0.00
2023-02-02T03:43:08.563Z,0.00
2023-02-02T03:44:08.571Z,0.00
2023-02-02T03:45:08.591Z,0.00
2023-02-02T03:46:08.673Z,0.00
2023-02-02T03:47:08.628Z,0.00
2023-02-02T03:48:08.650Z,0.00
2023-02-02T03:49:08.671Z,0.00
2023-02-02T03:50:09.949Z,0.00
2023-02-02T03:51:08.707Z,0.00
2023-02-02T03:52:08.732Z,0.00
2023-02-02T03:53:08.739Z,0.00
2023-02-02T03:54:08.765Z,0.00
2023-02-02T03:55:08.779Z,0.00
2023-02-02T03:56:08.797Z,0.00
2023-02-02T03:57:08.819Z,0.00
2023-02-02T03:58:08.838Z,0.00
2023-02-02T03:59:08.861Z,0.00
2023-02-02T04:00:08.889Z,0.00
2023-02-02T04:01:08.897Z,0.00
2023-02-02T04:02:08.915Z,0.00
2023-02-02T04:03:09.007Z,0.00
2023-02-02T04:04:08.965Z,0.00
2023-02-02T04:05:08.972Z,0.00
2023-02-02T04:06:08.992Z,0.00
2023-02-02T04:07:09.013Z,0.00
2023-02-02T04:08:09.040Z,0.00
2023-02-02T04:09:09.051Z,0.00
2023-02-02T04:10:09.069Z,0.00
2023-02-02T04:11:09.087Z,0.00
2023-02-02T04:12:09.108Z,0.00
2023-02-02T04:13:09.129Z,0.00
2023-02-02T04:14:09.146Z,0.00
2023-02-02T04:15:09.169Z,0.00
2023-02-02T04:16:09.231Z,0.00
2023-02-02T04:17:09.208Z,0.00
2023-02-02T04:18:09.221Z,0.00
2023-02-02T04:19:09.241Z,0.00
2023-02-02T04:20:09.269Z,0.00
2023-02-02T04:21:09.287Z,0.00
2023-02-02T04:22:09.300Z,0.00
2023-02-02T04:23:09.319Z,0.00
2023-02-02T04:24:09.340Z,0.00
2023-02-02T04:25:09.361Z,0.00
2023-02-02T04:26:09.377Z,0.00
2023-02-02T04:27:09.400Z,0.00
2023-02-02T04:28:09.417Z,0.00
2023-02-02T04:29:09.433Z,0.00
2023-02-02T04:30:09.457Z,0.00
2023-02-02T04:31:09.567Z,0.00
2023-02-02T04:32:09.509Z,0.00
2023-02-02T04:33:09.523Z,0.00
2023-02-02T04:34:09.539Z,0.00
2023-02-02T04:35:09.562Z,0.00
2023-02-02T04:36:09.572Z,0.00
2023-02-02T04:37:09.594Z,0.00
2023-02-02T04:38:10.116Z,0.00
2023-02-02T04:39:09.631Z,0.00
2023-02-02T04:40:09.652Z,0.00
2023-02-02T04:41:09.671Z,0.00
2023-02-02T04:42:09.691Z,0.00
2023-02-02T04:43:09.710Z,0.00
2023-02-02T04:44:09.729Z,0.00
2023-02-02T04:45:09.754Z,0.00
2023-02-02T04:46:09.779Z,0.00
2023-02-02T04:47:09.784Z,0.00
2023-02-02T04:48:09.824Z,0.00
2023-02-02T04:49:09.826Z,0.00
2023-02-02T04:50:09.844Z,0.00
2023-02-02T04:51:09.864Z,0.00
2023-02-02T04:52:09.881Z,0.00
2023-02-02T04:53:09.899Z,0.00
2023-02-02T04:54:09.922Z,0.00
2023-02-02T04:55:09.938Z,0.00
2023-02-02T04:56:09.963Z,0.00
2023-02-02T04:57:09.978Z,0.00
2023-02-02T04:58:10.004Z,0.00
2023-02-02T04:59:10.025Z,0.00
2023-02-02T05:00:10.035Z,0.00
2023-02-02T05:01:10.118Z,0.00
2023-02-02T05:02:10.072Z,0.00
2023-02-02T05:03:10.102Z,0.00
2023-02-02T05:04:10.155Z,0.00
2023-02-02T05:05:10.158Z,0.00
2023-02-02T05:06:10.150Z,0.00
2023-02-02T05:07:10.181Z,0.00
2023-02-02T05:08:10.192Z,0.00
2023-02-02T05:09:10.211Z,0.00
2023-02-02T05:10:10.228Z,0.00
2023-02-02T05:11:10.253Z,0.00
2023-02-02T05:12:10.266Z,0.00
2023-02-02T05:13:10.292Z,0.00
2023-02-02T05:14:10.311Z,0.00
2023-02-02T05:15:10.329Z,0.00
2023-02-02T05:16:10.444Z,0.00
2023-02-02T05:17:10.370Z,0.00
2023-02-02T05:18:10.384Z,0.00
2023-02-02T05:19:10.403Z,0.00
2023-02-02T05:20:10.439Z,0.00
2023-02-02T05:21:10.457Z,0.00
2023-02-02T05:22:10.466Z,0.00
2023-02-02T05:23:10.482Z,0.00
2023-02-02T05:24:10.499Z,0.00
2023-02-02T05:25:10.525Z,0.00
2023-02-02T05:26:10.542Z,0.00
2023-02-02T05:27:10.559Z,0.00
2023-02-02T05:28:10.577Z,0.00
2023-02-02T05:29:10.599Z,0.00
2023-02-02T05:30:10.620Z,0.00
2023-02-02T05:31:10.674Z,0.00
2023-02-02T05:32:10.721Z,0.00
2023-02-02T05:33:10.677Z,0.00
2023-02-02T05:34:10.694Z,0.00
2023-02-02T05:35:10.715Z,0.00
2023-02-02T05:36:10.734Z,0.00
2023-02-02T05:37:10.758Z,0.00
2023-02-02T05:38:10.771Z,0.00
2023-02-02T05:39:10.814Z,0.00
2023-02-02T05:40:10.805Z,0.00
2023-02-02T05:41:10.842Z,0.00
2023-02-02T05:42:10.846Z,0.00
2023-02-02T05:43:10.876Z,0.00
2023-02-02T05:44:10.888Z,0.00
2023-02-02T05:45:10.909Z,0.00
2023-02-02T05:46:10.983Z,0.00
2023-02-02T05:47:10.950Z,0.00
2023-02-02T05:48:10.963Z,0.00
2023-02-02T05:49:10.984Z,0.00
2023-02-02T05:50:11.003Z,0.00
2023-02-02T05:51:11.026Z,0.00
2023-02-02T05:52:11.040Z,0.00
2023-02-02T05:53:11.068Z,0.00
2023-02-02T05:54:11.093Z,0.00
2023-02-02T05:55:11.096Z,0.00
2023-02-02T05:56:11.123Z,0.00
2023-02-02T05:57:11.142Z,0.00
2023-02-02T05:58:11.156Z,0.00
2023-02-02T05:59:11.177Z,0.00
2023-02-02T06:00:11.196Z,0.00
2023-02-02T06:01:11.214Z,0.00
2023-02-02T06:02:11.235Z,0.00
2023-02-02T06:03:11.322Z,0.00
2023-02-02T06:04:11.353Z,0.00
2023-02-02T06:05:11.292Z,0.00
2023-02-02T06:06:11.315Z,0.00
2023-02-02T06:07:11.341Z,0.00
2023-02-02T06:08:11.351Z,0.00
2023-02-02T06:09:11.374Z,0.00
2023-02-02T06:10:11.387Z,0.00
2023-02-02T06:11:11.415Z,0.00
2023-02-02T06:12:11.426Z,0.00
2023-02-02T06:13:11.450Z,0.00
2023-02-02T06:14:11.461Z,0.00
2023-02-02T06:15:11.487Z,0.00
2023-02-02T06:16:11.535Z,0.00
2023-02-02T06:17:11.532Z,0.00
2023-02-02T06:18:11.546Z,0.00
2023-02-02T06:19:11.566Z,0.00
2023-02-02T06:20:11.594Z,0.00
2023-02-02T06:21:11.615Z,0.00
2023-02-02T06:22:11.621Z,0.00
2023-02-02T06:23:11.647Z,0.00
2023-02-02T06:24:11.657Z,0.00
2023-02-02T06:25:11.692Z,0.00
2023-02-02T06:26:11.697Z,0.00
2023-02-02T06:27:18.903Z,0.00
2023-02-02T06:29:17.711Z,0.00
2023-02-02T06:30:15.740Z,0.00
2023-02-02T06:32:19.753Z,0.00
2023-02-02T06:33:19.759Z,0.00
2023-02-02T06:35:24.604Z,0.00
2023-02-02T06:36:23.756Z,0.00
2023-02-02T06:38:16.694Z,0.00
2023-02-02T06:39:16.693Z,0.00
2023-02-02T06:41:21.188Z,0.00
2023-02-02T06:42:22.070Z,0.00
2023-02-02T06:44:24.708Z,4.00
2023-02-02T06:45:25.100Z,4.00
2023-02-02T06:46:24.768Z,4.00
2023-02-02T06:47:26.825Z,0.00
2023-02-02T06:48:24.772Z,4.00
2023-02-02T06:49:24.792Z,8.00
2023-02-02T06:50:24.808Z,4.00
2023-02-02T06:51:24.832Z,8.00
2023-02-02T06:52:24.845Z,8.00
2023-02-02T06:53:24.893Z,8.00
2023-02-02T06:54:24.887Z,8.00
2023-02-02T06:55:25.220Z,12.00
2023-02-02T06:56:24.923Z,12.00
2023-02-02T06:57:24.945Z,16.00
2023-02-02T06:58:24.963Z,16.00
2023-02-02T06:59:24.989Z,16.00
2023-02-02T07:00:25.001Z,20.00
2023-02-02T07:01:25.066Z,24.00
2023-02-02T07:02:25.118Z,24.00
2023-02-02T07:03:25.152Z,32.00
2023-02-02T07:04:25.080Z,36.00
2023-02-02T07:05:25.403Z,40.00
2023-02-02T07:06:25.127Z,44.00
2023-02-02T07:07:25.141Z,48.00
2023-02-02T07:08:25.167Z,56.00
2023-02-02T07:09:25.173Z,56.00
2023-02-02T07:11:09.483Z,60.00
2023-02-02T07:11:25.208Z,60.00
2023-02-02T07:12:25.226Z,64.00
2023-02-02T07:13:25.250Z,68.00
2023-02-02T07:14:25.266Z,68.00
2023-02-02T07:15:25.789Z,72.00
2023-02-02T07:16:25.372Z,72.00
2023-02-02T07:17:25.318Z,68.00
2023-02-02T07:18:25.346Z,72.00
2023-02-02T07:19:25.369Z,80.00
2023-02-02T07:20:25.385Z,80.00
2023-02-02T07:21:25.405Z,76.00
2023-02-02T07:22:25.421Z,80.00
2023-02-02T07:23:25.444Z,76.00
2023-02-02T07:24:25.480Z,84.00
2023-02-02T07:25:25.937Z,80.00
2023-02-02T07:26:25.516Z,80.00
2023-02-02T07:27:25.525Z,88.00
2023-02-02T07:28:25.532Z,96.00
2023-02-02T07:29:25.553Z,104.00
2023-02-02T07:30:25.692Z,104.00
2023-02-02T07:31:25.653Z,116.00
2023-02-02T07:32:25.617Z,124.00
2023-02-02T07:33:25.633Z,136.00
2023-02-02T07:34:25.645Z,160.00
2023-02-02T07:35:25.893Z,180.00
2023-02-02T07:36:25.734Z,192.00
2023-02-02T07:37:25.706Z,204.00
2023-02-02T07:38:25.726Z,216.00
2023-02-02T07:39:25.743Z,220.00
2023-02-02T07:40:25.762Z,224.00
2023-02-02T07:41:25.820Z,232.00
2023-02-02T07:42:25.809Z,240.00
2023-02-02T07:43:25.813Z,244.00
2023-02-02T07:44:25.835Z,264.00
2023-02-02T07:45:36.219Z,292.00
2023-02-02T07:46:25.891Z,316.00
2023-02-02T07:47:25.894Z,348.00
2023-02-02T07:48:25.913Z,360.00
2023-02-02T07:49:25.931Z,360.00
2023-02-02T07:50:25.950Z,364.00
2023-02-02T07:51:26.010Z,372.00
2023-02-02T07:52:26.008Z,384.00
2023-02-02T07:53:26.005Z,396.00
2023-02-02T07:54:26.024Z,424.00
2023-02-02T07:55:26.099Z,460.00
2023-02-02T07:56:26.063Z,504.00
2023-02-02T07:57:26.081Z,532.00
2023-02-02T07:58:26.101Z,548.00
2023-02-02T07:59:26.119Z,560.00
2023-02-02T08:00:26.197Z,576.00
2023-02-02T08:01:26.477Z,572.00
2023-02-02T08:02:26.291Z,576.00
2023-02-02T08:03:26.197Z,580.00
2023-02-02T08:04:26.233Z,596.00
2023-02-02T08:05:26.640Z,632.00
2023-02-02T08:06:26.254Z,668.00
2023-02-02T08:07:26.280Z,712.00
2023-02-02T08:08:26.292Z,760.00
2023-02-02T08:09:26.310Z,816.00
2023-02-02T08:10:26.358Z,856.00
2023-02-02T08:11:26.389Z,880.00
2023-02-02T08:12:26.388Z,896.00
2023-02-02T08:13:26.387Z,928.00
2023-02-02T08:14:26.410Z,956.00
2023-02-02T08:15:26.681Z,968.00
2023-02-02T08:16:26.674Z,972.00
2023-02-02T08:17:26.477Z,972.00
2023-02-02T08:18:26.484Z,984.00
2023-02-02T08:19:26.504Z,984.00
2023-02-02T08:20:26.525Z,972.00
2023-02-02T08:21:26.547Z,956.00
2023-02-02T08:22:26.561Z,956.00
2023-02-02T08:23:26.587Z,968.00
2023-02-02T08:24:26.602Z,1008.00
2023-02-02T08:25:27.017Z,1072.00
2023-02-02T08:26:26.730Z,1148.00
2023-02-02T08:27:26.668Z,1244.00
2023-02-02T08:28:26.681Z,1364.00
2023-02-02T08:29:26.696Z,1432.00
2023-02-02T08:30:26.802Z,1408.00
2023-02-02T08:31:26.767Z,1340.00
2023-02-02T08:32:26.755Z,1276.00
2023-02-02T08:33:26.791Z,1220.00
2023-02-02T08:34:26.793Z,1156.00
2023-02-02T08:35:27.124Z,1100.00
2023-02-02T08:36:26.929Z,1080.00
2023-02-02T08:37:26.861Z,1120.00
2023-02-02T08:38:26.874Z,1132.00
2023-02-02T08:39:26.894Z,1124.00
2023-02-02T08:40:26.964Z,1128.00
2023-02-02T08:41:26.937Z,1148.00
2023-02-02T08:42:26.950Z,1176.00
2023-02-02T08:43:26.971Z,1220.00
2023-02-02T08:44:28.429Z,1264.00
2023-02-02T08:46:01.395Z,1304.00
2023-02-02T08:46:27.121Z,1376.00
2023-02-02T08:47:27.052Z,1516.00
2023-02-02T08:48:27.069Z,1648.00
2023-02-02T08:49:27.093Z,1732.00
2023-02-02T08:50:27.112Z,1740.00
2023-02-02T08:51:27.134Z,1708.00
2023-02-02T08:52:27.150Z,1668.00
2023-02-02T08:53:27.188Z,1592.00
2023-02-02T08:54:27.186Z,1532.00
2023-02-02T08:55:27.207Z,1512.00
2023-02-02T08:56:27.249Z,1488.00
2023-02-02T08:57:27.275Z,1484.00
2023-02-02T08:58:27.281Z,1508.00
2023-02-02T08:59:27.291Z,1548.00
2023-02-02T09:00:27.330Z,1584.00
2023-02-02T09:01:27.436Z,1628.00
2023-02-02T09:02:27.376Z,1672.00
2023-02-02T09:03:27.368Z,1680.00
2023-02-02T09:04:27.389Z,1688.00
2023-02-02T09:05:27.819Z,1732.00
2023-02-02T09:06:27.485Z,1768.00
2023-02-02T09:07:27.453Z,1804.00
2023-02-02T09:08:27.511Z,1848.00
2023-02-02T09:09:27.481Z,1912.00
2023-02-02T09:10:27.508Z,2032.00
2023-02-02T09:11:27.537Z,2172.00
2023-02-02T09:12:27.548Z,2292.00
2023-02-02T09:13:27.563Z,2392.00
2023-02-02T09:14:27.587Z,2456.00
2023-02-02T09:15:27.606Z,2496.00
2023-02-02T09:16:27.683Z,2504.00
2023-02-02T09:17:27.651Z,2492.00
2023-02-02T09:18:27.680Z,2516.00
2023-02-02T09:19:27.704Z,2520.00
2023-02-02T09:20:27.707Z,2512.00
2023-02-02T09:21:27.727Z,2556.00
2023-02-02T09:22:28.882Z,2632.00
2023-02-02T09:23:27.771Z,2684.00
2023-02-02T09:24:27.787Z,2692.00
2023-02-02T09:25:27.879Z,2644.00
2023-02-02T09:26:27.988Z,2592.00
2023-02-02T09:27:27.853Z,2544.00
2023-02-02T09:28:27.874Z,2456.00
2023-02-02T09:29:27.891Z,2368.00
2023-02-02T09:30:27.912Z,2332.00
2023-02-02T09:31:27.999Z,2280.00
2023-02-02T09:32:27.950Z,2196.00
2023-02-02T09:33:27.985Z,2124.00
2023-02-02T09:34:27.991Z,2092.00
2023-02-02T09:35:28.016Z,2108.00
2023-02-02T09:36:28.031Z,2132.00
2023-02-02T09:37:28.050Z,2160.00
2023-02-02T09:38:28.072Z,2160.00
2023-02-02T09:39:28.111Z,2168.00
2023-02-02T09:40:28.119Z,2192.00
2023-02-02T09:41:28.143Z,2256.00
2023-02-02T09:42:28.154Z,2348.00
2023-02-02T09:43:28.176Z,2392.00
2023-02-02T09:44:28.196Z,2388.00
2023-02-02T09:45:28.327Z,2368.00
2023-02-02T09:46:28.234Z,2400.00
2023-02-02T09:47:28.256Z,2480.00
2023-02-02T09:48:28.279Z,2520.00
2023-02-02T09:49:28.305Z,2536.00
2023-02-02T09:50:28.316Z,2544.00
2023-02-02T09:51:28.357Z,2608.00
2023-02-02T09:52:28.372Z,2676.00
2023-02-02T09:53:28.392Z,2680.00
2023-02-02T09:54:28.413Z,2636.00
2023-02-02T09:55:28.419Z,2568.00
2023-02-02T09:56:28.446Z,2520.00
2023-02-02T09:57:28.471Z,2516.00
2023-02-02T09:58:28.493Z,2528.00
2023-02-02T09:59:28.534Z,2520.00
2023-02-02T10:00:28.522Z,2448.00
2023-02-02T10:01:28.568Z,2364.00
2023-02-02T10:02:28.565Z,2344.00
2023-02-02T10:03:28.627Z,2360.00
2023-02-02T10:04:28.620Z,2440.00
2023-02-02T10:05:28.619Z,2536.00
2023-02-02T10:06:28.647Z,2552.00
2023-02-02T10:07:28.670Z,2568.00
2023-02-02T10:08:34.784Z,2612.00
2023-02-02T10:09:28.703Z,2640.00
2023-02-02T10:10:28.729Z,2668.00
2023-02-02T10:11:28.747Z,2668.00
2023-02-02T10:12:28.768Z,2756.00
2023-02-02T10:13:28.793Z,2828.00
2023-02-02T10:14:28.824Z,2828.00
2023-02-02T10:15:28.825Z,2776.00
2023-02-02T10:16:28.845Z,2684.00
2023-02-02T10:17:28.878Z,2620.00
2023-02-02T10:18:28.890Z,2592.00
2023-02-02T10:19:28.927Z,2632.00
2023-02-02T10:20:28.988Z,2664.00
2023-02-02T10:21:28.956Z,2636.00
2023-02-02T10:22:28.967Z,2604.00
2023-02-02T10:23:28.998Z,2620.00
2023-02-02T10:24:29.008Z,2648.00
2023-02-02T10:25:29.042Z,2696.00
2023-02-02T10:26:29.139Z,2772.00
2023-02-02T10:27:29.068Z,2820.00
2023-02-02T10:28:29.092Z,2884.00
2023-02-02T10:29:32.630Z,2968.00
2023-02-02T10:30:29.158Z,3060.00
2023-02-02T10:31:29.255Z,3108.00
2023-02-02T10:32:29.178Z,3180.00
2023-02-02T10:33:29.215Z,3260.00
2023-02-02T10:34:29.216Z,3300.00
2023-02-02T10:35:29.254Z,3280.00
2023-02-02T10:36:29.258Z,3248.00
2023-02-02T10:37:29.281Z,3140.00
2023-02-02T10:38:29.313Z,3012.00
2023-02-02T10:39:29.329Z,2980.00
2023-02-02T10:40:29.343Z,2980.00
2023-02-02T10:41:29.363Z,2984.00
2023-02-02T10:42:29.384Z,3040.00
2023-02-02T10:43:29.414Z,3072.00
2023-02-02T10:44:29.432Z,3172.00
2023-02-02T10:45:29.445Z,3164.00
2023-02-02T10:46:29.475Z,3104.00
2023-02-02T10:47:29.483Z,3156.00
2023-02-02T10:48:29.504Z,3148.00
2023-02-02T10:49:29.536Z,3244.00
2023-02-02T10:50:29.616Z,3320.00
2023-02-02T10:51:29.607Z,3332.00
2023-02-02T10:52:29.600Z,3264.00
2023-02-02T10:53:29.609Z,3072.00
2023-02-02T10:54:29.631Z,2976.00
2023-02-02T10:55:29.652Z,2912.00
2023-02-02T10:56:29.673Z,3076.00
2023-02-02T10:57:29.695Z,3200.00
2023-02-02T10:58:29.722Z,3252.00
2023-02-02T10:59:29.738Z,3264.00
2023-02-02T11:00:30.029Z,3452.00
2023-02-02T11:01:29.867Z,3604.00
2023-02-02T11:02:29.879Z,3680.00
2023-02-02T11:03:29.819Z,3684.00
2023-02-02T11:04:29.844Z,3684.00
2023-02-02T11:05:29.869Z,3712.00
2023-02-02T11:06:29.900Z,3792.00
2023-02-02T11:07:29.900Z,3808.00
2023-02-02T11:08:29.927Z,3844.00
2023-02-02T11:09:29.958Z,4064.00
2023-02-02T11:10:29.970Z,4336.00
2023-02-02T11:11:29.986Z,4436.00
2023-02-02T11:12:30.029Z,4420.00
2023-02-02T11:13:30.027Z,4388.00
2023-02-02T11:14:30.048Z,4324.00
2023-02-02T11:15:30.075Z,4256.00
2023-02-02T11:16:41.448Z,4192.00
2023-02-02T11:17:30.117Z,4084.00
2023-02-02T11:18:30.132Z,3980.00
2023-02-02T11:19:30.158Z,3872.00
2023-02-02T11:20:30.169Z,3688.00
2023-02-02T11:21:30.197Z,3596.00
2023-02-02T11:22:30.217Z,3600.00
2023-02-02T11:23:30.257Z,3632.00
2023-02-02T11:24:30.254Z,3936.00
2023-02-02T11:25:30.278Z,4224.00
2023-02-02T11:26:30.348Z,4216.00
2023-02-02T11:27:30.337Z,4080.00
2023-02-02T11:28:30.361Z,4016.00
2023-02-02T11:29:30.364Z,3936.00
2023-02-02T11:30:30.387Z,3792.00
2023-02-02T11:31:30.502Z,3588.00
2023-02-02T11:32:30.435Z,3412.00
2023-02-02T11:33:30.444Z,3408.00
2023-02-02T11:34:30.468Z,3512.00
2023-02-02T11:35:30.514Z,3516.00
2023-02-02T11:36:30.514Z,3300.00
2023-02-02T11:37:30.541Z,3048.00
2023-02-02T11:38:30.574Z,3004.00
2023-02-02T11:39:30.577Z,3156.00
2023-02-02T11:40:30.596Z,3284.00
2023-02-02T11:41:30.620Z,3280.00
2023-02-02T11:42:30.639Z,3292.00
2023-02-02T11:43:30.652Z,3328.00
2023-02-02T11:44:30.680Z,3296.00
2023-02-02T11:45:30.699Z,3116.00
2023-02-02T11:46:30.804Z,2800.00
2023-02-02T11:47:30.748Z,2580.00
2023-02-02T11:48:30.766Z,2648.00
2023-02-02T11:49:30.791Z,2664.00
2023-02-02T11:50:30.814Z,2344.00
2023-02-02T11:51:30.829Z,2176.00
2023-02-02T11:52:32.577Z,2356.00
2023-02-02T11:53:30.870Z,2704.00
2023-02-02T11:54:30.894Z,3012.00
2023-02-02T11:55:30.910Z,3268.00
2023-02-02T11:56:30.933Z,3580.00
2023-02-02T11:57:30.953Z,3980.00
2023-02-02T11:58:30.990Z,4364.00
2023-02-02T11:59:31.001Z,4412.00
2023-02-02T12:00:31.016Z,4032.00
2023-02-02T12:01:31.047Z,3600.00
2023-02-02T12:02:31.072Z,3340.00
2023-02-02T12:03:31.105Z,3264.00
2023-02-02T12:04:32.560Z,3200.00
2023-02-02T12:05:31.131Z,3068.00
2023-02-02T12:06:31.155Z,2824.00
2023-02-02T12:07:31.177Z,2652.00
2023-02-02T12:08:31.186Z,2600.00
2023-02-02T12:09:31.204Z,2644.00
2023-02-02T12:10:34.022Z,2736.00
2023-02-02T12:11:31.249Z,2768.00
2023-02-02T12:12:31.276Z,2756.00
2023-02-02T12:13:31.300Z,2756.00
2023-02-02T12:14:31.315Z,2680.00
2023-02-02T12:15:31.332Z,2676.00
2023-02-02T12:16:31.408Z,2656.00
2023-02-02T12:17:31.379Z,2700.00
2023-02-02T12:18:31.405Z,2696.00
2023-02-02T12:19:31.416Z,2740.00
2023-02-02T12:20:31.437Z,2768.00
2023-02-02T12:21:31.458Z,2612.00
2023-02-02T12:22:31.474Z,2404.00
2023-02-02T12:23:31.502Z,2264.00
2023-02-02T12:24:31.544Z,2252.00
2023-02-02T12:25:31.545Z,2240.00
2023-02-02T12:26:31.578Z,2052.00
2023-02-02T12:27:31.581Z,1960.00
2023-02-02T12:28:31.607Z,1992.00
2023-02-02T12:29:31.628Z,2048.00
2023-02-02T12:30:31.645Z,2244.00
2023-02-02T12:31:31.711Z,2384.00
2023-02-02T12:32:31.688Z,2404.00
2023-02-02T12:33:31.717Z,2452.00
2023-02-02T12:34:31.732Z,2564.00
2023-02-02T12:35:31.746Z,2728.00
2023-02-02T12:36:31.773Z,2788.00
2023-02-02T12:37:31.821Z,2808.00
2023-02-02T12:38:31.847Z,2860.00
2023-02-02T12:39:31.839Z,2944.00
2023-02-02T12:40:31.859Z,3212.00
2023-02-02T12:41:31.877Z,3312.00
2023-02-02T12:42:31.897Z,3000.00
2023-02-02T12:43:31.951Z,2544.00
2023-02-02T12:44:31.940Z,2316.00
2023-02-02T12:45:31.998Z,2352.00
2023-02-02T12:46:31.981Z,2368.00
2023-02-02T12:47:32.023Z,2120.00
2023-02-02T12:48:32.024Z,2260.00
2023-02-02T12:49:32.052Z,2352.00
2023-02-02T12:50:32.071Z,2344.00
2023-02-02T12:51:32.110Z,2176.00
2023-02-02T12:52:32.106Z,1916.00